createdAt,value
2017-06-14T00:00:06.616Z,55.83
2017-06-14T00:01:17.006Z,55.74
2017-06-14T00:02:27.348Z,55.83
2017-06-14T00:03:37.396Z,55.74
2017-06-14T00:04:47.764Z,55.93
2017-06-14T00:05:58.109Z,55.74
2017-06-14T00:07:08.188Z,55.83
2017-06-14T00:08:18.226Z,55.93
2017-06-14T00:09:28.557Z,55.81
2017-06-14T00:10:38.900Z,56.03
2017-06-14T00:11:48.634Z,55.9
2017-06-14T00:12:58.978Z,55.71
2017-06-14T00:14:09.334Z,55.81
2017-06-14T00:15:19.356Z,55.81
2017-06-14T00:16:29.540Z,55.81
2017-06-14T00:17:39.584Z,55.71
2017-06-14T00:18:49.985Z,55.71
2017-06-14T00:20:00.323Z,55.9
2017-06-14T00:21:10.696Z,55.71
2017-06-14T00:22:21.057Z,55.71
2017-06-14T00:23:31.427Z,55.81
2017-06-14T00:24:41.775Z,55.62
2017-06-14T00:25:52.125Z,55.62
2017-06-14T00:27:02.468Z,55.52
2017-06-14T00:28:12.823Z,55.9
2017-06-14T00:29:23.182Z,55.23
2017-06-14T00:30:33.224Z,55.23
2017-06-14T00:31:43.575Z,55.33
2017-06-14T00:32:53.918Z,55.62
2017-06-14T00:34:04.274Z,55.62
2017-06-14T00:35:14.338Z,55.81
2017-06-14T00:36:24.421Z,55.62
2017-06-14T00:37:34.774Z,55.33
2017-06-14T00:38:45.120Z,55.43
2017-06-14T00:39:55.162Z,55.33
2017-06-14T00:41:05.532Z,55.62
2017-06-14T00:42:15.619Z,55.23
2017-06-14T00:43:25.968Z,55.43
2017-06-14T00:44:36.315Z,55.23
2017-06-14T00:45:46.671Z,55.52
2017-06-14T00:46:56.709Z,55.9
2017-06-14T00:48:07.124Z,55.81
2017-06-14T00:49:17.483Z,55.33
2017-06-14T00:50:27.843Z,55.62
2017-06-14T00:51:38.190Z,55.62
2017-06-14T00:52:47.932Z,55.52
2017-06-14T00:53:58.275Z,55.52
2017-06-14T00:55:08.304Z,55.23
2017-06-14T00:56:18.335Z,55.43
2017-06-14T00:57:28.684Z,55.62
2017-06-14T00:58:39.025Z,55.62
2017-06-14T00:59:49.438Z,55.62
2017-06-14T01:00:59.474Z,55.49
2017-06-14T01:02:09.822Z,55.71
2017-06-14T01:03:20.173Z,55.23
2017-06-14T01:04:30.556Z,55.23
2017-06-14T01:05:40.942Z,56.2
2017-06-14T01:06:50.984Z,55.43
2017-06-14T01:08:01.339Z,55.43
2017-06-14T01:09:11.382Z,56
2017-06-14T01:10:21.421Z,55.81
2017-06-14T01:11:31.481Z,56
2017-06-14T01:12:41.510Z,55.81
2017-06-14T01:13:51.564Z,55.71
2017-06-14T01:15:01.903Z,55.78
2017-06-14T01:16:11.952Z,55.78
2017-06-14T01:17:22.420Z,55.78
2017-06-14T01:18:32.761Z,55.71
2017-06-14T01:19:43.108Z,55.98
2017-06-14T01:20:53.453Z,55.71
2017-06-14T01:22:03.471Z,55.68
2017-06-14T01:23:13.550Z,55.68
2017-06-14T01:24:23.892Z,55.81
2017-06-14T01:25:33.925Z,55.9
2017-06-14T01:26:44.278Z,55.9
2017-06-14T01:27:54.626Z,55.81
2017-06-14T01:29:04.976Z,55.9
2017-06-14T01:30:15.012Z,55.68
2017-06-14T01:31:25.358Z,55.78
2017-06-14T01:32:35.707Z,55.78
2017-06-14T01:33:45.738Z,56.07
2017-06-14T01:34:55.819Z,55.78
2017-06-14T01:36:06.163Z,55.78
2017-06-14T01:37:15.883Z,55.78
2017-06-14T01:38:26.220Z,55.78
2017-06-14T01:39:35.633Z,55.68
2017-06-14T01:40:45.995Z,55.68
2017-06-14T01:41:56.327Z,55.78
2017-06-14T01:43:06.358Z,55.78
2017-06-14T01:44:16.693Z,55.68
2017-06-14T01:45:27.042Z,55.68
2017-06-14T01:46:37.442Z,55.49
2017-06-14T01:47:47.798Z,55.78
2017-06-14T01:48:57.835Z,55.98
2017-06-14T01:50:08.189Z,55.78
2017-06-14T01:51:18.573Z,55.4
2017-06-14T01:52:28.641Z,55.59
2017-06-14T01:53:38.993Z,55.2
2017-06-14T01:54:49.333Z,55.59
2017-06-14T01:55:59.374Z,55.4
2017-06-14T01:57:09.719Z,55.3
2017-06-14T01:58:20.116Z,55.3
2017-06-14T01:59:30.145Z,55.18
2017-06-14T02:00:40.486Z,55.78
2017-06-14T02:01:50.822Z,56.07
2017-06-14T02:03:01.173Z,55.66
2017-06-14T02:04:11.202Z,55.56
2017-06-14T02:05:21.237Z,55.46
2017-06-14T02:06:30.949Z,55.66
2017-06-14T02:07:41.286Z,55.94
2017-06-14T02:08:51.637Z,55.66
2017-06-14T02:10:01.726Z,55.56
2017-06-14T02:11:12.074Z,55.56
2017-06-14T02:12:22.106Z,55.66
2017-06-14T02:13:32.135Z,55.66
2017-06-14T02:14:42.492Z,55.66
2017-06-14T02:15:52.852Z,55.56
2017-06-14T02:17:03.185Z,55.56
2017-06-14T02:18:13.523Z,55.56
2017-06-14T02:19:23.879Z,55.56
2017-06-14T02:20:34.219Z,55.76
2017-06-14T02:21:43.976Z,55.66
2017-06-14T02:22:53.691Z,55.66
2017-06-14T02:24:04.035Z,55.76
2017-06-14T02:25:14.057Z,55.76
2017-06-14T02:26:24.404Z,55.46
2017-06-14T02:27:34.481Z,55.46
2017-06-14T02:28:44.526Z,55.46
2017-06-14T02:29:54.562Z,55.56
2017-06-14T02:31:04.902Z,55.66
2017-06-14T02:32:14.939Z,55.56
2017-06-14T02:33:25.323Z,55.46
2017-06-14T02:34:35.665Z,55.76
2017-06-14T02:35:45.999Z,55.56
2017-06-14T02:36:56.333Z,55.66
2017-06-14T02:38:06.373Z,55.46
2017-06-14T02:39:16.707Z,55.46
2017-06-14T02:40:27.052Z,55.56
2017-06-14T02:41:37.396Z,55.94
2017-06-14T02:42:47.746Z,55.46
2017-06-14T02:43:57.470Z,55.46
2017-06-14T02:45:07.861Z,55.76
2017-06-14T02:46:17.899Z,55.44
2017-06-14T02:47:27.937Z,55.94
2017-06-14T02:48:38.287Z,55.53
2017-06-14T02:49:48.004Z,55.34
2017-06-14T02:50:58.414Z,55.46
2017-06-14T02:52:08.753Z,55.34
2017-06-14T02:53:19.089Z,55.24
2017-06-14T02:54:29.430Z,55.18
2017-06-14T02:55:39.778Z,55.18
2017-06-14T02:56:49.814Z,55.56
2017-06-14T02:58:00.171Z,55.63
2017-06-14T02:59:10.208Z,55.37
2017-06-14T03:00:20.564Z,55.53
2017-06-14T03:01:30.912Z,55.56
2017-06-14T03:32:46.799Z,52.19
2017-06-14T03:33:56.822Z,52.38
2017-06-14T03:35:07.153Z,53.53
2017-06-14T03:36:17.540Z,53.63
2017-06-14T03:37:27.579Z,54.21
2017-06-14T03:38:37.935Z,54.88
2017-06-14T03:39:48.283Z,54.68
2017-06-14T03:40:58.325Z,55.1
2017-06-14T03:42:08.379Z,55.38
2017-06-14T03:43:18.739Z,55.32
2017-06-14T03:44:29.138Z,55.32
2017-06-14T03:45:39.497Z,55.34
2017-06-14T03:46:49.231Z,55.44
2017-06-14T03:47:59.571Z,55.34
2017-06-14T03:49:09.926Z,55.37
2017-06-14T03:50:20.329Z,55.08
2017-06-14T03:51:30.679Z,55.01
2017-06-14T03:52:41.019Z,54.82
2017-06-14T03:53:51.360Z,54.85
2017-06-14T03:55:01.395Z,55.04
2017-06-14T03:56:11.854Z,54.94
2017-06-14T03:57:21.567Z,54.94
2017-06-14T03:58:31.912Z,55.16
2017-06-14T03:59:42.274Z,55.07
2017-06-14T04:00:52.321Z,54.9
2017-06-14T04:02:01.780Z,54.9
2017-06-14T04:03:12.145Z,54.61
2017-06-14T04:04:22.186Z,55.09
2017-06-14T04:05:32.553Z,54.74
2017-06-14T04:06:42.912Z,55.12
2017-06-14T04:07:53.301Z,55.02
2017-06-14T04:09:03.014Z,55.12
2017-06-14T04:10:13.359Z,54.64
2017-06-14T04:11:23.402Z,54.64
2017-06-14T04:12:33.756Z,54.38
2017-06-14T04:13:43.877Z,54.38
2017-06-14T04:14:54.226Z,54.38
2017-06-14T04:16:04.578Z,54.47
2017-06-14T04:17:14.926Z,54.31
2017-06-14T04:18:25.284Z,54.21
2017-06-14T04:19:35.636Z,54.11
2017-06-14T04:20:45.976Z,54.11
2017-06-14T04:21:56.009Z,54.11
2017-06-14T04:23:06.050Z,54.11
2017-06-14T04:24:16.381Z,54.02
2017-06-14T04:25:26.478Z,54.02
2017-06-14T04:26:36.821Z,54.14
2017-06-14T04:27:46.854Z,54.24
2017-06-14T04:28:57.194Z,54.33
2017-06-14T04:30:07.231Z,53.85
2017-06-14T04:31:17.592Z,54.24
2017-06-14T04:32:27.620Z,54.43
2017-06-14T04:33:37.973Z,54.14
2017-06-14T04:34:48.008Z,54.14
2017-06-14T04:35:57.728Z,53.95
2017-06-14T04:37:08.112Z,54.24
2017-06-14T04:38:18.159Z,53.97
2017-06-14T04:39:28.505Z,53.78
2017-06-14T04:40:38.542Z,53.69
2017-06-14T04:41:48.591Z,53.33
2017-06-14T04:42:58.989Z,53.33
2017-06-14T04:44:09.314Z,53.33
2017-06-14T04:45:19.672Z,53.25
2017-06-14T04:46:29.739Z,53.55
2017-06-14T04:47:39.802Z,53.67
2017-06-14T04:48:50.145Z,52.7
2017-06-14T04:50:00.496Z,53.77
2017-06-14T04:51:10.849Z,53.57
2017-06-14T04:52:20.907Z,53.02
2017-06-14T04:53:31.256Z,53.41
2017-06-14T04:54:41.661Z,53.69
2017-06-14T04:55:52.005Z,53.41
2017-06-14T04:57:02.351Z,53.77
2017-06-14T04:58:12.698Z,53.38
2017-06-14T04:59:23.050Z,53.96
2017-06-14T05:00:33.451Z,54.25
2017-06-14T05:01:43.490Z,54.25
2017-06-14T05:02:53.840Z,53.67
2017-06-14T05:04:03.875Z,53.96
2017-06-14T05:05:13.915Z,53.86
2017-06-14T05:06:23.951Z,53.79
2017-06-14T05:07:34.302Z,53.21
2017-06-14T05:08:44.009Z,53.5
2017-06-14T05:09:54.352Z,53.69
2017-06-14T05:11:04.717Z,51.98
2017-06-14T05:12:14.745Z,52.12
2017-06-14T05:13:24.778Z,52.1
2017-06-14T05:14:35.123Z,51.47
2017-06-14T05:15:45.151Z,52.83
2017-06-14T05:16:55.177Z,53.09
2017-06-14T05:18:05.572Z,53.07
2017-06-14T05:19:15.611Z,53.55
2017-06-14T05:20:25.643Z,54.01
2017-06-14T05:21:36.018Z,53.43
2017-06-14T05:22:46.358Z,53.26
2017-06-14T05:23:56.754Z,52.58
2017-06-14T05:25:07.119Z,53.19
2017-06-14T05:26:17.175Z,52.29
2017-06-14T05:27:27.523Z,52.73
2017-06-14T05:28:37.586Z,53.09
2017-06-14T05:29:47.997Z,52.9
2017-06-14T05:30:58.342Z,52.64
2017-06-14T05:32:08.699Z,52.4
2017-06-14T05:33:18.413Z,50.87
2017-06-14T05:34:28.138Z,50.14
2017-06-14T05:35:38.490Z,49.73
2017-06-14T05:36:48.233Z,49.95
2017-06-14T05:37:58.591Z,49.49
2017-06-14T05:39:08.937Z,49.1
2017-06-14T05:40:18.966Z,49.12
2017-06-14T05:41:29.318Z,49.05
2017-06-14T05:42:39.656Z,48.78
2017-06-14T05:43:50.027Z,48.61
2017-06-14T05:45:00.390Z,49.12
2017-06-14T05:46:10.734Z,48.93
2017-06-14T05:47:21.126Z,48.63
2017-06-14T05:48:31.475Z,48.46
2017-06-14T05:49:41.830Z,48.75
2017-06-14T05:50:52.174Z,49.04
2017-06-14T05:52:02.532Z,50.1
2017-06-14T05:53:12.627Z,50.21
2017-06-14T05:54:22.644Z,49.95
2017-06-14T05:55:32.692Z,50.04
2017-06-14T05:56:43.066Z,50.14
2017-06-14T05:57:53.423Z,50.43
2017-06-14T05:59:03.811Z,50.21
2017-06-14T06:00:13.862Z,50.24
2017-06-14T06:01:24.234Z,50.6
2017-06-14T06:02:34.587Z,50.31
2017-06-14T06:03:44.948Z,50.8
2017-06-14T06:04:55.030Z,50.6
2017-06-14T06:06:05.065Z,50.8
2017-06-14T06:07:15.413Z,50.78
2017-06-14T06:08:25.764Z,51.07
2017-06-14T06:09:36.120Z,51.17
2017-06-14T06:10:46.483Z,51.34
2017-06-14T06:11:56.837Z,51.34
2017-06-14T06:13:06.871Z,52.12
2017-06-14T06:14:17.229Z,52.09
2017-06-14T06:15:27.271Z,51.9
2017-06-14T06:16:37.691Z,52.12
2017-06-14T06:17:47.714Z,51.7
2017-06-14T06:18:57.737Z,51.7
2017-06-14T06:20:08.092Z,51.99
2017-06-14T06:21:18.434Z,51.8
2017-06-14T06:22:28.824Z,51.8
2017-06-14T06:23:39.177Z,51.8
2017-06-14T06:24:49.524Z,51.99
2017-06-14T06:25:59.864Z,51.8
2017-06-14T06:27:09.923Z,52.26
2017-06-14T06:28:20.330Z,51.67
2017-06-14T06:29:30.632Z,52.14
2017-06-14T06:30:41.371Z,52.23
2017-06-14T06:31:51.760Z,52.04
2017-06-14T06:33:02.123Z,52.5
2017-06-14T06:34:12.455Z,52.5
2017-06-14T06:35:22.819Z,52.5
2017-06-14T06:36:33.191Z,52.28
2017-06-14T06:37:43.586Z,52.28
2017-06-14T06:38:53.627Z,52.28
2017-06-14T06:40:03.352Z,52.47
2017-06-14T06:41:13.420Z,52.57
2017-06-14T06:42:23.782Z,52.67
2017-06-14T06:43:34.144Z,52.94
2017-06-14T06:44:44.493Z,52.94
2017-06-14T06:45:54.578Z,52.84
2017-06-14T06:47:04.629Z,53.03
2017-06-14T06:48:14.676Z,53.03
2017-06-14T06:49:25.041Z,52.94
2017-06-14T06:50:35.404Z,52.72
2017-06-14T06:51:45.766Z,52.91
2017-06-14T06:52:55.797Z,52.62
2017-06-14T06:54:06.141Z,52.98
2017-06-14T06:55:16.506Z,52.98
2017-06-14T06:56:26.243Z,52.98
2017-06-14T06:57:36.644Z,53.08
2017-06-14T06:58:46.682Z,53.08
2017-06-14T06:59:57.026Z,53.37
2017-06-14T07:01:07.391Z,53.95
2017-06-14T07:02:17.736Z,53.56
2017-06-14T07:03:28.146Z,53.24
2017-06-14T07:04:38.185Z,53.34
2017-06-14T07:05:48.334Z,53.63
2017-06-14T07:06:58.722Z,53.34
2017-06-14T07:08:09.084Z,53.53
2017-06-14T07:09:19.176Z,53.63
2017-06-14T07:10:29.520Z,53.44
2017-06-14T07:11:39.546Z,53.63
2017-06-14T07:12:49.918Z,53.44
2017-06-14T07:13:59.954Z,53.44
2017-06-14T07:15:10.451Z,53.63
2017-06-14T07:16:21.805Z,53.89
2017-06-14T07:17:33.345Z,54.21
2017-06-14T07:18:43.100Z,53.89
2017-06-14T07:19:53.135Z,53.99
2017-06-14T07:21:03.226Z,54.09
2017-06-14T07:22:13.579Z,53.89
2017-06-14T07:23:23.938Z,53.89
2017-06-14T07:24:34.298Z,53.8
2017-06-14T07:25:44.675Z,53.61
2017-06-14T07:26:54.760Z,53.99
2017-06-14T07:28:05.106Z,54.16
2017-06-14T07:29:15.142Z,54.26
2017-06-14T07:30:25.490Z,53.97
2017-06-14T07:31:35.860Z,53.58
2017-06-14T07:32:45.962Z,53.51
2017-06-14T07:33:55.995Z,53.41
2017-06-14T07:35:06.355Z,53.41
2017-06-14T07:36:16.403Z,53.61
2017-06-14T07:37:26.446Z,53.41
2017-06-14T07:38:36.787Z,53.61
2017-06-14T07:39:47.157Z,53.41
2017-06-14T07:40:57.508Z,53.41
2017-06-14T07:42:07.861Z,53.31
2017-06-14T07:43:17.896Z,53.22
2017-06-14T07:44:28.260Z,53.51
2017-06-14T07:45:38.613Z,53.63
2017-06-14T07:46:48.658Z,53.61
2017-06-14T07:47:59.004Z,53.53
2017-06-14T07:49:08.718Z,53.31
2017-06-14T07:50:19.129Z,53.41
2017-06-14T07:51:29.477Z,53.41
2017-06-14T07:52:39.857Z,53.41
2017-06-14T07:53:50.233Z,53.51
2017-06-14T07:55:00.604Z,53.61
2017-06-14T07:56:11.015Z,53.61
2017-06-14T07:57:21.375Z,53.63
2017-06-14T07:58:31.751Z,53.51
2017-06-14T07:59:41.799Z,53.63
2017-06-14T08:00:51.550Z,53.73
2017-06-14T08:02:01.962Z,53.73
2017-06-14T08:03:12.353Z,53.73
2017-06-14T08:04:22.724Z,53.75
2017-06-14T08:05:33.071Z,53.85
2017-06-14T08:06:43.420Z,53.66
2017-06-14T08:07:53.831Z,52.98
2017-06-14T08:09:04.183Z,53.2
2017-06-14T08:10:14.550Z,53.2
2017-06-14T08:11:24.901Z,52.81
2017-06-14T08:12:35.252Z,52.84
2017-06-14T08:13:45.029Z,53.13
2017-06-14T08:14:55.071Z,53.22
2017-06-14T08:16:05.419Z,53.32
2017-06-14T08:17:15.764Z,53.81
2017-06-14T08:18:26.120Z,53.78
2017-06-14T08:19:36.513Z,53.78
2017-06-14T08:20:46.556Z,53.71
2017-06-14T08:21:56.903Z,53.42
2017-06-14T08:23:06.934Z,53.61
2017-06-14T08:24:17.284Z,53.71
2017-06-14T08:25:27.683Z,53.71
2017-06-14T08:26:38.024Z,53.69
2017-06-14T08:27:48.375Z,53.61
2017-06-14T08:28:58.718Z,53.71
2017-06-14T08:30:08.435Z,53.52
2017-06-14T08:31:18.844Z,53.71
2017-06-14T08:32:29.192Z,53.52
2017-06-14T08:33:39.543Z,53.39
2017-06-14T08:34:49.262Z,53.71
2017-06-14T08:35:59.304Z,53.52
2017-06-14T08:37:09.704Z,53.81
2017-06-14T08:38:19.426Z,53.81
2017-06-14T08:39:29.764Z,53.52
2017-06-14T08:40:40.099Z,53.45
2017-06-14T08:41:50.451Z,53.81
2017-06-14T08:43:00.953Z,53.16
2017-06-14T08:44:11.305Z,53.25
2017-06-14T08:45:21.659Z,52.96
2017-06-14T08:46:32.028Z,52.96
2017-06-14T08:47:42.369Z,53.16
2017-06-14T08:48:52.730Z,53.06
2017-06-14T08:50:03.083Z,53.16
2017-06-14T08:51:12.802Z,52.96
2017-06-14T08:52:23.157Z,52.86
2017-06-14T08:53:33.503Z,53.06
2017-06-14T08:54:43.926Z,53.06
2017-06-14T08:55:54.264Z,53.25
2017-06-14T08:57:04.310Z,53.54
2017-06-14T08:58:14.371Z,54.03
2017-06-14T08:59:24.734Z,53.35
2017-06-14T09:00:35.165Z,53.06
2017-06-14T09:01:45.556Z,53.16
2017-06-14T09:02:55.640Z,53.16
2017-06-14T09:04:05.058Z,53.18
2017-06-14T09:05:15.420Z,53.47
2017-06-14T09:06:25.834Z,53.08
2017-06-14T09:07:36.181Z,52.79
2017-06-14T09:08:46.534Z,53.16
2017-06-14T09:09:56.559Z,53.25
2017-06-14T09:11:06.907Z,52.98
2017-06-14T09:12:17.342Z,53.18
2017-06-14T09:13:27.106Z,52.89
2017-06-14T09:14:37.482Z,53.18
2017-06-14T09:15:47.813Z,53.18
2017-06-14T09:16:57.538Z,53.28
2017-06-14T09:18:07.942Z,53.18
2017-06-14T09:19:17.980Z,53.01
2017-06-14T09:20:28.346Z,53.11
2017-06-14T09:21:38.641Z,53.96
2017-06-14T09:22:49.003Z,53.18
2017-06-14T09:23:59.405Z,53.01
2017-06-14T09:25:09.160Z,53.89
2017-06-14T09:26:19.528Z,53.28
2017-06-14T09:27:29.889Z,53.11
2017-06-14T09:28:39.913Z,53.99
2017-06-14T09:29:50.028Z,52.89
2017-06-14T09:31:00.472Z,53.01
2017-06-14T09:32:10.823Z,53.3
2017-06-14T09:33:20.893Z,52.92
2017-06-14T09:34:30.946Z,53.04
2017-06-14T09:35:41.304Z,52.84
2017-06-14T09:36:51.671Z,52.75
2017-06-14T09:38:02.047Z,53.14
2017-06-14T09:39:12.097Z,53.06
2017-06-14T09:40:22.134Z,52.31
2017-06-14T09:41:32.550Z,52.6
2017-06-14T09:42:42.919Z,53.38
2017-06-14T09:43:53.281Z,53.28
2017-06-14T09:45:03.643Z,52.89
2017-06-14T09:46:13.998Z,52.7
2017-06-14T09:47:24.103Z,52.99
2017-06-14T09:48:34.465Z,52.77
2017-06-14T09:49:44.505Z,53.28
2017-06-14T09:50:54.863Z,52.7
2017-06-14T09:52:04.900Z,52.44
2017-06-14T09:53:15.310Z,53.21
2017-06-14T09:54:25.657Z,53.11
2017-06-14T09:55:35.700Z,52.92
2017-06-14T09:56:45.743Z,53.77
2017-06-14T09:57:56.106Z,53.72
2017-06-14T09:59:06.513Z,54.03
2017-06-14T10:00:16.877Z,53.26
2017-06-14T10:01:27.237Z,53.06
2017-06-14T10:02:37.279Z,52.97
2017-06-14T10:03:47.326Z,52.99
2017-06-14T10:04:57.686Z,53.65
2017-06-14T10:06:08.088Z,53.62
2017-06-14T10:07:18.142Z,54.11
2017-06-14T10:08:28.498Z,53.62
2017-06-14T10:09:38.533Z,53.89
2017-06-14T10:10:48.893Z,53.59
2017-06-14T10:11:59.291Z,53.91
2017-06-14T10:13:09.647Z,54.01
2017-06-14T10:14:19.681Z,52.84
2017-06-14T10:15:29.705Z,53.14
2017-06-14T10:16:39.753Z,52.87
2017-06-14T10:17:50.122Z,53.26
2017-06-14T10:19:00.478Z,52.4
2017-06-14T10:20:10.841Z,52.53
2017-06-14T10:21:21.181Z,52.53
2017-06-14T10:22:31.540Z,52.44
2017-06-14T10:23:41.629Z,52.36
2017-06-14T10:24:51.994Z,52.46
2017-06-14T10:26:02.340Z,53.31
2017-06-14T10:27:12.702Z,53.11
2017-06-14T10:28:23.066Z,53.67
2017-06-14T10:29:33.146Z,53.06
2017-06-14T10:30:43.196Z,52.7
2017-06-14T10:31:52.918Z,53.02
2017-06-14T10:33:02.960Z,53.21
2017-06-14T10:34:13.002Z,52.95
2017-06-14T10:35:23.102Z,52.36
2017-06-14T10:36:33.454Z,52.75
2017-06-14T10:37:43.494Z,52.39
2017-06-14T10:38:53.835Z,52.48
2017-06-14T10:40:03.870Z,53
2017-06-14T10:41:14.222Z,53.17
2017-06-14T10:42:24.265Z,53.02
2017-06-14T10:43:34.618Z,53.02
2017-06-14T10:44:44.972Z,53.11
2017-06-14T10:45:55.340Z,52.46
2017-06-14T10:47:05.726Z,52.39
2017-06-14T10:48:16.082Z,52.48
2017-06-14T10:49:26.116Z,52.12
2017-06-14T10:50:36.484Z,52.31
2017-06-14T10:51:46.837Z,52.51
2017-06-14T10:52:57.441Z,52.8
2017-06-14T10:54:07.496Z,52.78
2017-06-14T10:55:17.222Z,52.51
2017-06-14T10:56:27.570Z,52.34
2017-06-14T10:57:37.929Z,52.15
2017-06-14T10:58:48.333Z,53.61
2017-06-14T10:59:58.690Z,53.19
2017-06-14T11:01:08.733Z,52.41
2017-06-14T11:02:19.104Z,53.42
2017-06-14T11:03:29.150Z,53.42
2017-06-14T11:04:39.558Z,53.75
2017-06-14T11:05:49.915Z,53.44
2017-06-14T11:07:00.268Z,53.17
2017-06-14T11:08:10.623Z,53
2017-06-14T11:09:20.665Z,52.73
2017-06-14T11:10:30.780Z,52.54
2017-06-14T11:11:41.148Z,52.64
2017-06-14T11:12:51.519Z,52.76
2017-06-14T11:14:01.897Z,52.44
2017-06-14T11:15:12.276Z,52.56
2017-06-14T11:16:22.666Z,52.66
2017-06-14T11:17:32.708Z,52.34
2017-06-14T11:18:43.059Z,52.83
2017-06-14T11:19:53.111Z,52.54
2017-06-14T11:21:03.163Z,52.44
2017-06-14T11:22:13.580Z,52.56
2017-06-14T11:23:23.955Z,52.66
2017-06-14T11:24:34.028Z,52.47
2017-06-14T11:25:44.074Z,52.39
2017-06-14T11:26:54.410Z,52.59
2017-06-14T11:28:04.505Z,52
2017-06-14T11:29:14.884Z,52.71
2017-06-14T11:30:24.931Z,52.25
2017-06-14T11:31:34.992Z,52.34
2017-06-14T11:32:45.357Z,52.25
2017-06-14T11:33:55.717Z,52.34
2017-06-14T11:35:06.076Z,52.44
2017-06-14T11:36:16.443Z,52.73
2017-06-14T11:37:26.506Z,52.81
2017-06-14T11:38:36.881Z,52.42
2017-06-14T11:39:47.307Z,52.71
2017-06-14T11:40:57.360Z,52.81
2017-06-14T11:42:07.415Z,53
2017-06-14T11:43:17.470Z,53.59
2017-06-14T11:44:27.835Z,53.49
2017-06-14T11:45:37.984Z,53.47
2017-06-14T11:46:48.011Z,53.37
2017-06-14T11:47:58.370Z,52.61
2017-06-14T11:49:08.732Z,52.91
2017-06-14T11:50:18.495Z,53.1
2017-06-14T11:51:28.623Z,53.17
2017-06-14T11:52:38.972Z,53.37
2017-06-14T11:53:49.012Z,53.27
2017-06-14T11:54:59.365Z,53.49
2017-06-14T11:56:09.740Z,53.3
2017-06-14T11:57:20.170Z,52.71
2017-06-14T11:58:30.561Z,52.61
2017-06-14T11:59:40.621Z,52.73
2017-06-14T12:00:50.985Z,52.73
2017-06-14T12:02:01.364Z,52.54
2017-06-14T12:03:11.784Z,53.52
2017-06-14T12:04:22.143Z,53.33
2017-06-14T12:05:32.506Z,54.08
2017-06-14T12:06:42.867Z,53.44
2017-06-14T12:07:53.227Z,53.3
2017-06-14T12:09:03.594Z,53.59
2017-06-14T12:10:13.952Z,52.93
2017-06-14T12:11:24.017Z,52.44
2017-06-14T12:12:34.071Z,52.64
2017-06-14T12:13:44.120Z,52.73
2017-06-14T12:14:54.531Z,52.64
2017-06-14T12:16:04.894Z,52.83
2017-06-14T12:17:14.958Z,52.67
2017-06-14T12:18:25.306Z,52.64
2017-06-14T12:19:35.352Z,52.56
2017-06-14T12:20:45.756Z,52.47
2017-06-14T12:21:56.155Z,53.28
2017-06-14T12:23:06.552Z,53.33
2017-06-14T12:24:16.931Z,52.86
2017-06-14T12:25:27.310Z,53.55
2017-06-14T12:26:37.421Z,53.33
2017-06-14T12:27:47.467Z,53.69
2017-06-14T12:28:57.823Z,53.86
2017-06-14T12:30:08.180Z,53.44
2017-06-14T12:31:18.564Z,53.76
2017-06-14T12:32:28.653Z,52.59
2017-06-14T12:33:39.029Z,53.2
2017-06-14T12:34:49.096Z,52.51
2017-06-14T12:35:59.455Z,54.25
2017-06-14T12:37:09.487Z,53.91
2017-06-14T12:38:19.921Z,54.1
2017-06-14T12:39:30.277Z,53.25
2017-06-14T12:40:40.640Z,53.25
2017-06-14T12:41:50.998Z,53.27
2017-06-14T12:43:01.097Z,53.08
2017-06-14T12:44:11.520Z,53.08
2017-06-14T12:45:21.902Z,53.27
2017-06-14T12:46:32.268Z,53.08
2017-06-14T12:47:42.643Z,53.27
2017-06-14T12:48:52.686Z,53.39
2017-06-14T12:50:03.021Z,53.1
2017-06-14T12:51:13.377Z,53.3
2017-06-14T12:52:23.761Z,53.23
2017-06-14T12:53:33.915Z,53.03
2017-06-14T12:54:44.275Z,53.52
2017-06-14T12:55:54.695Z,53.78
2017-06-14T12:57:04.763Z,54.03
2017-06-14T12:58:15.146Z,53.54
2017-06-14T12:59:25.193Z,53.47
2017-06-14T13:00:34.928Z,53.56
2017-06-14T13:01:45.386Z,53.08
2017-06-14T13:02:55.759Z,53.08
2017-06-14T13:04:05.797Z,53
2017-06-14T13:05:16.161Z,53.2
2017-06-14T13:06:26.209Z,53.3
2017-06-14T13:07:36.613Z,53.1
2017-06-14T13:08:46.709Z,53.23
2017-06-14T13:09:57.084Z,53.52
2017-06-14T13:11:06.811Z,53.13
2017-06-14T13:12:17.170Z,53.42
2017-06-14T13:13:27.594Z,53.42
2017-06-14T13:14:37.632Z,53.33
2017-06-14T13:15:47.995Z,53.33
2017-06-14T13:16:58.362Z,53.2
2017-06-14T13:18:08.716Z,53.33
2017-06-14T13:19:18.506Z,53.42
2017-06-14T13:20:28.555Z,52.64
2017-06-14T13:21:38.936Z,53.13
2017-06-14T13:22:49.289Z,53.39
2017-06-14T13:23:59.665Z,53.23
2017-06-14T13:25:10.080Z,53.3
2017-06-14T13:26:20.426Z,53.1
2017-06-14T13:27:30.796Z,53.2
2017-06-14T13:28:41.160Z,54.08
2017-06-14T13:29:51.528Z,54.28
2017-06-14T13:31:01.932Z,54.17
2017-06-14T13:32:12.325Z,53.56
2017-06-14T13:33:22.713Z,53.3
2017-06-14T13:34:33.103Z,53
2017-06-14T13:35:43.456Z,53.1
2017-06-14T13:36:53.867Z,53
2017-06-14T13:38:03.922Z,53.3
2017-06-14T13:39:14.283Z,53
2017-06-14T13:40:23.697Z,53.39
2017-06-14T13:41:34.128Z,52.91
2017-06-14T13:42:44.248Z,52.91
2017-06-14T13:43:54.624Z,52.93
2017-06-14T13:45:05.006Z,53.23
2017-06-14T13:46:15.435Z,53.23
2017-06-14T13:47:25.822Z,52.93
2017-06-14T13:48:36.217Z,53.33
2017-06-14T13:49:47.384Z,53.23
2017-06-14T13:50:57.740Z,53.42
2017-06-14T13:52:07.789Z,53.59
2017-06-14T13:53:18.449Z,53.59
2017-06-14T13:54:28.886Z,53.76
2017-06-14T13:55:40.641Z,53.66
2017-06-14T13:56:52.447Z,53.56
2017-06-14T13:58:02.820Z,53.66
2017-06-14T13:59:13.176Z,53.56
2017-06-14T14:00:23.548Z,53.37
2017-06-14T14:01:33.925Z,53.49
2017-06-14T14:02:43.957Z,53.59
2017-06-14T14:03:53.703Z,53.3
2017-06-14T14:05:04.068Z,53.1
2017-06-14T14:06:13.884Z,53.33
2017-06-14T14:07:24.258Z,53.33
2017-06-14T14:08:34.603Z,53.1
2017-06-14T14:09:44.680Z,53.23
2017-06-14T14:10:55.040Z,53.33
2017-06-14T14:12:05.454Z,53.33
2017-06-14T14:13:15.485Z,53.3
2017-06-14T14:14:25.528Z,53.59
2017-06-14T14:15:35.878Z,53.59
2017-06-14T14:16:46.258Z,53.3
2017-06-14T14:17:56.657Z,53.3
2017-06-14T14:19:07.006Z,53.39
2017-06-14T14:20:16.732Z,53.3
2017-06-14T14:21:27.077Z,53.49
2017-06-14T14:22:37.119Z,53.66
2017-06-14T14:23:47.896Z,53.27
2017-06-14T14:24:58.240Z,53.59
2017-06-14T14:26:08.596Z,53.3
2017-06-14T14:27:18.945Z,53.49
2017-06-14T14:28:29.344Z,53.39
2017-06-14T14:29:39.488Z,53.39
2017-06-14T14:30:49.522Z,53.69
2017-06-14T14:31:59.559Z,53.37
2017-06-14T14:33:09.912Z,53.78
2017-06-14T14:34:20.274Z,53.49
2017-06-14T14:35:30.357Z,53.78
2017-06-14T14:36:40.503Z,54.17
2017-06-14T14:37:50.845Z,53.78
2017-06-14T14:39:00.892Z,53.69
2017-06-14T14:40:11.240Z,53.78
2017-06-14T14:41:21.666Z,54.28
2017-06-14T14:42:31.401Z,54.28
2017-06-14T14:43:41.479Z,54.08
2017-06-14T14:44:52.738Z,54.25
2017-06-14T14:46:06.352Z,53.76
2017-06-14T14:47:20.189Z,54.25
2017-06-14T14:48:33.562Z,54.15
2017-06-14T14:49:47.987Z,54.15
2017-06-14T14:51:01.947Z,54.15
2017-06-14T14:52:14.605Z,54.15
2017-06-14T14:53:27.621Z,54.15
2017-06-14T14:54:38.892Z,54.05
2017-06-14T14:55:50.905Z,54.25
2017-06-14T14:57:03.099Z,53.96
2017-06-14T14:58:17.911Z,54.15
2017-06-14T14:59:33.414Z,54.05
2017-06-14T15:00:47.855Z,53.96
2017-06-14T15:02:02.308Z,53.66
2017-06-14T15:03:17.931Z,53.76
2017-06-14T15:04:33.668Z,53.86
2017-06-14T15:05:48.328Z,54.05
2017-06-14T15:07:02.638Z,54.15
2017-06-14T15:08:15.181Z,54.15
2017-06-14T15:09:28.085Z,54.35
2017-06-14T15:10:42.122Z,54.25
2017-06-14T15:11:55.399Z,54.05
2017-06-14T15:13:08.115Z,53.96
2017-06-14T15:14:21.547Z,54.05
2017-06-14T15:15:32.918Z,53.86
2017-06-14T15:16:44.663Z,54.05
2017-06-14T15:17:56.428Z,53.96
2017-06-14T15:19:08.539Z,53.86
2017-06-14T15:20:20.321Z,53.93
2017-06-14T15:21:32.281Z,53.96
2017-06-14T15:22:43.374Z,53.86
2017-06-14T15:23:53.525Z,53.83
2017-06-14T15:25:03.653Z,54.05
2017-06-14T15:26:14.030Z,54.13
2017-06-14T15:27:24.474Z,53.93
2017-06-14T15:28:34.843Z,53.83
2017-06-14T15:29:44.905Z,53.96
2017-06-14T15:30:55.030Z,53.93
2017-06-14T15:32:05.135Z,53.86
2017-06-14T15:33:15.816Z,53.93
2017-06-14T15:34:26.342Z,54.22
2017-06-14T15:35:36.773Z,54.03
2017-06-14T15:36:47.234Z,54.03
2017-06-14T15:37:57.613Z,54.42
2017-06-14T15:39:08.883Z,54.03